sensor_id;sensor_type;location;lat;lon;timestamp;P1;durP1;ratioP1;P2;durP2;ratioP2
26588;SDS011;14235;48.532;8.722;2022-12-07T00:02:23;4.95;;;4.47;;
26588;SDS011;14235;48.532;8.722;2022-12-07T00:04:49;5.88;;;4.88;;
26588;SDS011;14235;48.532;8.722;2022-12-07T00:07:15;5.03;;;4.38;;
26588;SDS011;14235;48.532;8.722;2022-12-07T00:09:41;5.35;;;4.00;;
26588;SDS011;14235;48.532;8.722;2022-12-07T00:12:07;4.20;;;3.72;;
26588;SDS011;14235;48.532;8.722;2022-12-07T00:14:33;4.00;;;3.58;;
26588;SDS011;14235;48.532;8.722;2022-12-07T00:16:59;4.60;;;4.20;;
26588;SDS011;14235;48.532;8.722;2022-12-07T00:19:26;5.30;;;4.40;;
26588;SDS011;14235;48.532;8.722;2022-12-07T00:21:52;4.43;;;4.03;;
26588;SDS011;14235;48.532;8.722;2022-12-07T00:24:17;6.82;;;4.50;;
26588;SDS011;14235;48.532;8.722;2022-12-07T00:26:43;4.85;;;4.35;;
26588;SDS011;14235;48.532;8.722;2022-12-07T00:29:15;4.70;;;4.30;;
26588;SDS011;14235;48.532;8.722;2022-12-07T00:31:41;4.50;;;4.07;;
26588;SDS011;14235;48.532;8.722;2022-12-07T00:34:09;5.00;;;4.50;;
26588;SDS011;14235;48.532;8.722;2022-12-07T00:36:37;4.93;;;4.50;;
26588;SDS011;14235;48.532;8.722;2022-12-07T00:39:03;5.03;;;4.53;;
26588;SDS011;14235;48.532;8.722;2022-12-07T00:41:29;5.10;;;4.60;;
26588;SDS011;14235;48.532;8.722;2022-12-07T00:43:56;4.72;;;4.25;;
26588;SDS011;14235;48.532;8.722;2022-12-07T00:46:22;4.50;;;4.10;;
26588;SDS011;14235;48.532;8.722;2022-12-07T00:48:48;5.25;;;4.75;;
26588;SDS011;14235;48.532;8.722;2022-12-07T00:51:16;4.77;;;4.33;;
26588;SDS011;14235;48.532;8.722;2022-12-07T00:53:42;4.97;;;4.47;;
26588;SDS011;14235;48.532;8.722;2022-12-07T00:56:09;4.33;;;3.93;;
26588;SDS011;14235;48.532;8.722;2022-12-07T00:58:35;5.17;;;3.93;;
26588;SDS011;14235;48.532;8.722;2022-12-07T01:01:02;4.32;;;3.92;;
26588;SDS011;14235;48.532;8.722;2022-12-07T01:03:28;5.45;;;4.20;;
26588;SDS011;14235;48.532;8.722;2022-12-07T01:05:55;4.18;;;3.85;;
26588;SDS011;14235;48.532;8.722;2022-12-07T01:08:21;4.20;;;3.88;;
26588;SDS011;14235;48.532;8.722;2022-12-07T01:10:47;4.03;;;3.60;;
26588;SDS011;14235;48.532;8.722;2022-12-07T01:13:14;4.30;;;3.90;;
26588;SDS011;14235;48.532;8.722;2022-12-07T01:15:41;4.27;;;3.83;;
26588;SDS011;14235;48.532;8.722;2022-12-07T01:18:07;4.00;;;3.60;;
26588;SDS011;14235;48.532;8.722;2022-12-07T01:20:33;4.03;;;3.72;;
26588;SDS011;14235;48.532;8.722;2022-12-07T01:22:59;5.78;;;3.80;;
26588;SDS011;14235;48.532;8.722;2022-12-07T01:25:25;4.30;;;3.92;;
26588;SDS011;14235;48.532;8.722;2022-12-07T01:27:51;4.20;;;3.83;;
26588;SDS011;14235;48.532;8.722;2022-12-07T01:30:17;6.32;;;4.05;;
26588;SDS011;14235;48.532;8.722;2022-12-07T01:32:43;3.88;;;3.58;;
26588;SDS011;14235;48.532;8.722;2022-12-07T01:35:08;4.57;;;3.60;;
26588;SDS011;14235;48.532;8.722;2022-12-07T01:37:35;3.30;;;3.10;;
26588;SDS011;14235;48.532;8.722;2022-12-07T01:40:02;4.57;;;3.43;;
26588;SDS011;14235;48.532;8.722;2022-12-07T01:42:28;3.60;;;3.13;;
26588;SDS011;14235;48.532;8.722;2022-12-07T01:47:39;3.78;;;3.47;;
26588;SDS011;14235;48.532;8.722;2022-12-07T01:50:05;3.95;;;3.58;;
26588;SDS011;14235;48.532;8.722;2022-12-07T01:52:31;3.58;;;3.28;;
26588;SDS011;14235;48.532;8.722;2022-12-07T01:55:17;4.70;;;3.40;;
26588;SDS011;14235;48.532;8.722;2022-12-07T01:57:45;3.73;;;3.33;;
26588;SDS011;14235;48.532;8.722;2022-12-07T02:00:13;3.58;;;3.28;;
26588;SDS011;14235;48.532;8.722;2022-12-07T02:02:44;3.83;;;3.42;;
26588;SDS011;14235;48.532;8.722;2022-12-07T02:05:11;3.60;;;3.30;;
26588;SDS011;14235;48.532;8.722;2022-12-07T02:07:38;3.40;;;3.08;;
26588;SDS011;14235;48.532;8.722;2022-12-07T02:12:39;3.87;;;3.50;;
26588;SDS011;14235;48.532;8.722;2022-12-07T02:15:05;3.40;;;3.10;;
26588;SDS011;14235;48.532;8.722;2022-12-07T02:23:00;3.27;;;2.97;;
26588;SDS011;14235;48.532;8.722;2022-12-07T02:25:55;3.47;;;3.22;;
26588;SDS011;14235;48.532;8.722;2022-12-07T02:30:43;3.43;;;3.13;;
26588;SDS011;14235;48.532;8.722;2022-12-07T02:33:14;4.03;;;3.70;;
26588;SDS011;14235;48.532;8.722;2022-12-07T02:35:46;4.03;;;3.60;;
26588;SDS011;14235;48.532;8.722;2022-12-07T02:38:18;3.53;;;3.23;;
26588;SDS011;14235;48.532;8.722;2022-12-07T02:40:50;5.10;;;3.53;;
26588;SDS011;14235;48.532;8.722;2022-12-07T02:43:19;3.50;;;3.30;;
26588;SDS011;14235;48.532;8.722;2022-12-07T02:45:47;3.60;;;3.30;;
26588;SDS011;14235;48.532;8.722;2022-12-07T02:48:14;3.77;;;3.23;;
26588;SDS011;14235;48.532;8.722;2022-12-07T02:50:59;3.88;;;3.58;;
26588;SDS011;14235;48.532;8.722;2022-12-07T02:53:35;3.92;;;3.63;;
26588;SDS011;14235;48.532;8.722;2022-12-07T02:56:04;3.80;;;3.47;;
26588;SDS011;14235;48.532;8.722;2022-12-07T03:01:43;4.00;;;3.60;;
26588;SDS011;14235;48.532;8.722;2022-12-07T03:03:57;4.47;;;3.87;;
26588;SDS011;14235;48.532;8.722;2022-12-07T03:06:31;4.40;;;4.00;;
26588;SDS011;14235;48.532;8.722;2022-12-07T03:11:29;5.10;;;3.83;;
26588;SDS011;14235;48.532;8.722;2022-12-07T03:14:03;4.17;;;3.77;;
26588;SDS011;14235;48.532;8.722;2022-12-07T03:16:40;5.10;;;3.70;;
26588;SDS011;14235;48.532;8.722;2022-12-07T03:19:14;4.40;;;4.00;;
26588;SDS011;14235;48.532;8.722;2022-12-07T03:21:53;4.57;;;4.17;;
26588;SDS011;14235;48.532;8.722;2022-12-07T03:24:21;5.90;;;4.67;;
26588;SDS011;14235;48.532;8.722;2022-12-07T03:26:49;4.40;;;4.00;;
26588;SDS011;14235;48.532;8.722;2022-12-07T03:29:21;4.83;;;4.20;;
26588;SDS011;14235;48.532;8.722;2022-12-07T03:31:50;4.27;;;3.90;;
26588;SDS011;14235;48.532;8.722;2022-12-07T03:34:21;4.63;;;4.23;;
26588;SDS011;14235;48.532;8.722;2022-12-07T03:36:51;4.93;;;4.43;;
26588;SDS011;14235;48.532;8.722;2022-12-07T03:42:08;5.00;;;4.50;;
26588;SDS011;14235;48.532;8.722;2022-12-07T03:44:36;4.50;;;4.10;;
26588;SDS011;14235;48.532;8.722;2022-12-07T03:47:06;6.63;;;3.80;;
26588;SDS011;14235;48.532;8.722;2022-12-07T03:49:45;4.00;;;3.60;;
26588;SDS011;14235;48.532;8.722;2022-12-07T03:54:53;4.03;;;3.60;;
26588;SDS011;14235;48.532;8.722;2022-12-07T03:57:22;4.20;;;3.80;;
26588;SDS011;14235;48.532;8.722;2022-12-07T03:59:49;3.87;;;3.57;;
26588;SDS011;14235;48.532;8.722;2022-12-07T04:02:15;4.00;;;3.60;;
26588;SDS011;14235;48.532;8.722;2022-12-07T04:04:42;4.63;;;4.10;;
26588;SDS011;14235;48.532;8.722;2022-12-07T04:07:08;4.30;;;3.90;;
26588;SDS011;14235;48.532;8.722;2022-12-07T04:09:35;4.53;;;4.13;;
26588;SDS011;14235;48.532;8.722;2022-12-07T04:18:12;4.40;;;4.00;;
26588;SDS011;14235;48.532;8.722;2022-12-07T04:20:38;3.80;;;3.50;;
26588;SDS011;14235;48.532;8.722;2022-12-07T04:23:12;6.77;;;4.23;;
26588;SDS011;14235;48.532;8.722;2022-12-07T04:25:38;4.60;;;4.20;;
26588;SDS011;14235;48.532;8.722;2022-12-07T04:28:04;4.30;;;3.90;;
26588;SDS011;14235;48.532;8.722;2022-12-07T04:30:30;5.17;;;3.83;;
26588;SDS011;14235;48.532;8.722;2022-12-07T04:32:56;4.77;;;4.07;;
26588;SDS011;14235;48.532;8.722;2022-12-07T04:35:22;4.30;;;3.90;;
26588;SDS011;14235;48.532;8.722;2022-12-07T04:37:48;5.47;;;3.47;;
26588;SDS011;14235;48.532;8.722;2022-12-07T04:40:14;4.20;;;3.90;;
26588;SDS011;14235;48.532;8.722;2022-12-07T04:42:40;3.80;;;3.50;;
26588;SDS011;14235;48.532;8.722;2022-12-07T04:45:06;3.80;;;3.50;;
26588;SDS011;14235;48.532;8.722;2022-12-07T04:47:32;4.10;;;3.53;;
26588;SDS011;14235;48.532;8.722;2022-12-07T04:49:58;4.53;;;4.13;;
26588;SDS011;14235;48.532;8.722;2022-12-07T04:52:24;5.67;;;4.20;;
26588;SDS011;14235;48.532;8.722;2022-12-07T04:54:50;5.63;;;4.37;;
26588;SDS011;14235;48.532;8.722;2022-12-07T04:57:16;4.87;;;4.47;;
26588;SDS011;14235;48.532;8.722;2022-12-07T04:59:42;4.77;;;4.23;;
26588;SDS011;14235;48.532;8.722;2022-12-07T05:02:08;4.30;;;3.77;;
26588;SDS011;14235;48.532;8.722;2022-12-07T05:04:34;4.73;;;4.30;;
26588;SDS011;14235;48.532;8.722;2022-12-07T05:07:00;5.00;;;4.50;;
26588;SDS011;14235;48.532;8.722;2022-12-07T05:09:26;4.57;;;4.17;;
26588;SDS011;14235;48.532;8.722;2022-12-07T05:11:52;4.67;;;4.13;;
26588;SDS011;14235;48.532;8.722;2022-12-07T05:14:19;6.07;;;4.33;;
26588;SDS011;14235;48.532;8.722;2022-12-07T05:16:45;4.03;;;3.70;;
26588;SDS011;14235;48.532;8.722;2022-12-07T05:19:12;4.93;;;4.00;;
26588;SDS011;14235;48.532;8.722;2022-12-07T05:21:39;4.37;;;3.97;;
26588;SDS011;14235;48.532;8.722;2022-12-07T05:24:05;3.90;;;3.60;;
26588;SDS011;14235;48.532;8.722;2022-12-07T05:26:31;4.43;;;4.00;;
26588;SDS011;14235;48.532;8.722;2022-12-07T05:28:57;4.40;;;4.00;;
26588;SDS011;14235;48.532;8.722;2022-12-07T05:31:24;6.60;;;4.20;;
26588;SDS011;14235;48.532;8.722;2022-12-07T05:33:50;4.23;;;3.83;;
26588;SDS011;14235;48.532;8.722;2022-12-07T05:36:16;4.07;;;3.67;;
26588;SDS011;14235;48.532;8.722;2022-12-07T05:38:42;4.67;;;4.20;;
26588;SDS011;14235;48.532;8.722;2022-12-07T05:41:09;6.40;;;4.93;;
26588;SDS011;14235;48.532;8.722;2022-12-07T05:43:57;4.87;;;4.40;;
26588;SDS011;14235;48.532;8.722;2022-12-07T05:46:23;4.27;;;3.87;;
26588;SDS011;14235;48.532;8.722;2022-12-07T05:48:49;4.27;;;3.87;;
26588;SDS011;14235;48.532;8.722;2022-12-07T05:51:15;5.43;;;4.43;;
26588;SDS011;14235;48.532;8.722;2022-12-07T05:53:41;4.70;;;4.20;;
26588;SDS011;14235;48.532;8.722;2022-12-07T05:56:07;4.53;;;4.10;;
26588;SDS011;14235;48.532;8.722;2022-12-07T05:58:33;5.33;;;3.87;;
26588;SDS011;14235;48.532;8.722;2022-12-07T06:01:17;4.20;;;3.90;;
26588;SDS011;14235;48.532;8.722;2022-12-07T06:03:43;4.13;;;3.73;;
26588;SDS011;14235;48.532;8.722;2022-12-07T06:06:10;3.63;;;3.33;;
26588;SDS011;14235;48.532;8.722;2022-12-07T06:08:36;4.33;;;3.93;;
26588;SDS011;14235;48.532;8.722;2022-12-07T06:11:02;4.93;;;3.90;;
26588;SDS011;14235;48.532;8.722;2022-12-07T06:13:47;4.60;;;4.17;;
26588;SDS011;14235;48.532;8.722;2022-12-07T06:16:13;4.20;;;3.80;;
26588;SDS011;14235;48.532;8.722;2022-12-07T06:18:39;6.20;;;3.90;;
26588;SDS011;14235;48.532;8.722;2022-12-07T06:21:05;4.37;;;3.97;;
26588;SDS011;14235;48.532;8.722;2022-12-07T06:23:30;5.37;;;3.87;;
26588;SDS011;14235;48.532;8.722;2022-12-07T06:25:56;4.20;;;3.80;;
26588;SDS011;14235;48.532;8.722;2022-12-07T06:28:22;4.00;;;3.70;;
26588;SDS011;14235;48.532;8.722;2022-12-07T06:30:56;4.13;;;3.73;;
26588;SDS011;14235;48.532;8.722;2022-12-07T06:33:22;4.40;;;4.00;;
26588;SDS011;14235;48.532;8.722;2022-12-07T06:35:48;4.67;;;3.97;;
26588;SDS011;14235;48.532;8.722;2022-12-07T06:38:14;4.67;;;4.20;;
26588;SDS011;14235;48.532;8.722;2022-12-07T06:40:40;4.50;;;4.10;;
26588;SDS011;14235;48.532;8.722;2022-12-07T06:43:06;6.93;;;4.13;;
26588;SDS011;14235;48.532;8.722;2022-12-07T06:45:31;4.47;;;3.50;;
26588;SDS011;14235;48.532;8.722;2022-12-07T06:47:57;5.17;;;4.27;;
26588;SDS011;14235;48.532;8.722;2022-12-07T06:50:23;4.30;;;3.90;;
26588;SDS011;14235;48.532;8.722;2022-12-07T06:52:50;3.63;;;3.33;;
26588;SDS011;14235;48.532;8.722;2022-12-07T06:55:16;4.33;;;3.90;;
26588;SDS011;14235;48.532;8.722;2022-12-07T06:57:42;7.93;;;3.80;;
26588;SDS011;14235;48.532;8.722;2022-12-07T07:00:08;4.83;;;4.23;;
26588;SDS011;14235;48.532;8.722;2022-12-07T07:02:35;4.27;;;3.87;;
26588;SDS011;14235;48.532;8.722;2022-12-07T07:05:01;4.20;;;3.70;;
26588;SDS011;14235;48.532;8.722;2022-12-07T07:07:27;4.37;;;3.97;;
26588;SDS011;14235;48.532;8.722;2022-12-07T07:09:53;4.00;;;3.60;;
26588;SDS011;14235;48.532;8.722;2022-12-07T07:12:19;4.00;;;3.67;;
26588;SDS011;14235;48.532;8.722;2022-12-07T07:14:45;5.10;;;4.00;;
26588;SDS011;14235;48.532;8.722;2022-12-07T07:17:11;4.00;;;3.60;;
26588;SDS011;14235;48.532;8.722;2022-12-07T07:19:37;4.20;;;3.80;;
26588;SDS011;14235;48.532;8.722;2022-12-07T07:22:03;4.80;;;4.40;;
26588;SDS011;14235;48.532;8.722;2022-12-07T07:24:29;4.90;;;4.33;;
26588;SDS011;14235;48.532;8.722;2022-12-07T07:26:55;5.13;;;4.63;;
26588;SDS011;14235;48.532;8.722;2022-12-07T07:29:21;4.63;;;4.23;;
26588;SDS011;14235;48.532;8.722;2022-12-07T07:31:47;5.13;;;4.63;;
26588;SDS011;14235;48.532;8.722;2022-12-07T07:34:13;4.83;;;4.33;;
26588;SDS011;14235;48.532;8.722;2022-12-07T07:36:39;8.10;;;4.50;;
26588;SDS011;14235;48.532;8.722;2022-12-07T07:39:05;4.50;;;3.90;;
26588;SDS011;14235;48.532;8.722;2022-12-07T07:41:31;4.87;;;4.03;;
26588;SDS011;14235;48.532;8.722;2022-12-07T07:43:57;5.60;;;4.27;;
26588;SDS011;14235;48.532;8.722;2022-12-07T07:46:23;4.33;;;3.93;;
26588;SDS011;14235;48.532;8.722;2022-12-07T07:48:49;5.10;;;4.10;;
26588;SDS011;14235;48.532;8.722;2022-12-07T07:51:15;6.00;;;4.93;;
26588;SDS011;14235;48.532;8.722;2022-12-07T07:53:41;6.90;;;6.00;;
26588;SDS011;14235;48.532;8.722;2022-12-07T07:56:07;5.73;;;5.03;;
26588;SDS011;14235;48.532;8.722;2022-12-07T07:58:33;5.73;;;5.20;;
26588;SDS011;14235;48.532;8.722;2022-12-07T08:01:04;6.00;;;5.13;;
26588;SDS011;14235;48.532;8.722;2022-12-07T08:03:30;6.03;;;4.73;;
26588;SDS011;14235;48.532;8.722;2022-12-07T08:05:56;5.47;;;4.67;;
26588;SDS011;14235;48.532;8.722;2022-12-07T08:08:22;4.57;;;4.17;;
26588;SDS011;14235;48.532;8.722;2022-12-07T08:10:48;5.27;;;4.77;;
26588;SDS011;14235;48.532;8.722;2022-12-07T08:13:15;4.77;;;4.37;;
26588;SDS011;14235;48.532;8.722;2022-12-07T08:15:42;5.30;;;4.80;;
26588;SDS011;14235;48.532;8.722;2022-12-07T08:18:09;6.20;;;4.70;;
26588;SDS011;14235;48.532;8.722;2022-12-07T08:20:35;6.37;;;5.70;;
26588;SDS011;14235;48.532;8.722;2022-12-07T08:23:02;5.97;;;5.27;;
26588;SDS011;14235;48.532;8.722;2022-12-07T08:25:28;7.23;;;5.23;;
26588;SDS011;14235;48.532;8.722;2022-12-07T08:27:54;6.97;;;5.43;;
26588;SDS011;14235;48.532;8.722;2022-12-07T08:30:20;7.00;;;5.83;;
26588;SDS011;14235;48.532;8.722;2022-12-07T08:32:47;6.63;;;5.80;;
26588;SDS011;14235;48.532;8.722;2022-12-07T08:35:13;7.30;;;5.90;;
26588;SDS011;14235;48.532;8.722;2022-12-07T08:37:39;7.17;;;5.60;;
26588;SDS011;14235;48.532;8.722;2022-12-07T08:40:06;7.90;;;6.23;;
26588;SDS011;14235;48.532;8.722;2022-12-07T08:42:32;5.03;;;4.53;;
26588;SDS011;14235;48.532;8.722;2022-12-07T08:45:09;5.07;;;4.53;;
26588;SDS011;14235;48.532;8.722;2022-12-07T08:47:40;4.40;;;4.00;;
26588;SDS011;14235;48.532;8.722;2022-12-07T08:50:07;5.90;;;5.20;;
26588;SDS011;14235;48.532;8.722;2022-12-07T08:52:35;6.57;;;5.93;;
26588;SDS011;14235;48.532;8.722;2022-12-07T08:55:01;8.47;;;6.33;;
26588;SDS011;14235;48.532;8.722;2022-12-07T08:57:28;11.73;;;6.70;;
26588;SDS011;14235;48.532;8.722;2022-12-07T08:59:54;6.93;;;6.10;;
26588;SDS011;14235;48.532;8.722;2022-12-07T09:02:20;7.27;;;6.17;;
26588;SDS011;14235;48.532;8.722;2022-12-07T09:04:46;5.50;;;5.00;;
26588;SDS011;14235;48.532;8.722;2022-12-07T09:07:12;5.77;;;5.27;;
26588;SDS011;14235;48.532;8.722;2022-12-07T09:09:37;5.83;;;5.27;;
26588;SDS011;14235;48.532;8.722;2022-12-07T09:12:03;6.93;;;5.80;;
26588;SDS011;14235;48.532;8.722;2022-12-07T09:14:29;6.43;;;5.17;;
26588;SDS011;14235;48.532;8.722;2022-12-07T09:16:55;6.63;;;5.40;;
26588;SDS011;14235;48.532;8.722;2022-12-07T09:19:29;5.47;;;4.97;;
26588;SDS011;14235;48.532;8.722;2022-12-07T09:21:54;5.70;;;5.00;;
26588;SDS011;14235;48.532;8.722;2022-12-07T09:24:20;6.00;;;5.40;;
26588;SDS011;14235;48.532;8.722;2022-12-07T09:26:46;6.77;;;5.03;;
26588;SDS011;14235;48.532;8.722;2022-12-07T09:29:11;7.17;;;5.57;;
26588;SDS011;14235;48.532;8.722;2022-12-07T09:31:37;6.80;;;5.77;;
26588;SDS011;14235;48.532;8.722;2022-12-07T09:34:02;7.53;;;5.70;;
26588;SDS011;14235;48.532;8.722;2022-12-07T09:36:29;5.53;;;5.03;;
26588;SDS011;14235;48.532;8.722;2022-12-07T09:38:55;8.03;;;5.40;;
26588;SDS011;14235;48.532;8.722;2022-12-07T09:41:21;6.20;;;5.60;;
26588;SDS011;14235;48.532;8.722;2022-12-07T09:43:48;6.47;;;5.72;;
26588;SDS011;14235;48.532;8.722;2022-12-07T09:46:15;6.00;;;5.40;;
26588;SDS011;14235;48.532;8.722;2022-12-07T09:48:44;6.37;;;5.77;;
26588;SDS011;14235;48.532;8.722;2022-12-07T09:51:17;6.07;;;5.37;;
26588;SDS011;14235;48.532;8.722;2022-12-07T09:53:48;7.40;;;5.17;;
26588;SDS011;14235;48.532;8.722;2022-12-07T09:56:14;6.80;;;5.30;;
26588;SDS011;14235;48.532;8.722;2022-12-07T09:58:42;5.67;;;4.53;;
26588;SDS011;14235;48.532;8.722;2022-12-07T10:03:34;5.27;;;4.77;;
26588;SDS011;14235;48.532;8.722;2022-12-07T10:06:03;5.80;;;4.40;;
26588;SDS011;14235;48.532;8.722;2022-12-07T10:08:30;6.37;;;4.30;;
26588;SDS011;14235;48.532;8.722;2022-12-07T10:10:56;4.70;;;4.30;;
26588;SDS011;14235;48.532;8.722;2022-12-07T10:13:44;5.17;;;4.47;;
26588;SDS011;14235;48.532;8.722;2022-12-07T10:16:32;3.80;;;3.50;;
26588;SDS011;14235;48.532;8.722;2022-12-07T10:21:58;3.90;;;3.60;;
26588;SDS011;14235;48.532;8.722;2022-12-07T10:24:24;3.93;;;3.63;;
26588;SDS011;14235;48.532;8.722;2022-12-07T10:26:51;3.70;;;3.20;;
26588;SDS011;14235;48.532;8.722;2022-12-07T10:29:22;3.72;;;3.42;;
26588;SDS011;14235;48.532;8.722;2022-12-07T10:32:53;3.58;;;3.28;;
26588;SDS011;14235;48.532;8.722;2022-12-07T10:35:41;3.33;;;3.10;;
26588;SDS011;14235;48.532;8.722;2022-12-07T10:37:49;3.90;;;3.43;;
26588;SDS011;14235;48.532;8.722;2022-12-07T10:40:35;4.13;;;3.37;;
26588;SDS011;14235;48.532;8.722;2022-12-07T10:43:02;3.90;;;3.50;;
26588;SDS011;14235;48.532;8.722;2022-12-07T10:45:29;3.87;;;3.40;;
26588;SDS011;14235;48.532;8.722;2022-12-07T10:47:59;3.40;;;3.10;;
26588;SDS011;14235;48.532;8.722;2022-12-07T10:56:03;3.30;;;2.83;;
26588;SDS011;14235;48.532;8.722;2022-12-07T11:01:32;2.90;;;2.70;;
26588;SDS011;14235;48.532;8.722;2022-12-07T11:06:54;2.80;;;2.60;;
26588;SDS011;14235;48.532;8.722;2022-12-07T11:09:47;2.97;;;2.70;;
26588;SDS011;14235;48.532;8.722;2022-12-07T11:15:15;3.40;;;2.97;;
26588;SDS011;14235;48.532;8.722;2022-12-07T11:26:02;2.60;;;2.40;;
26588;SDS011;14235;48.532;8.722;2022-12-07T11:28:41;2.60;;;2.33;;
26588;SDS011;14235;48.532;8.722;2022-12-07T11:33:53;2.40;;;2.30;;
26588;SDS011;14235;48.532;8.722;2022-12-07T11:41:55;2.30;;;2.10;;
26588;SDS011;14235;48.532;8.722;2022-12-07T11:44:32;2.13;;;2.03;;
26588;SDS011;14235;48.532;8.722;2022-12-07T11:47:05;2.22;;;2.10;;
26588;SDS011;14235;48.532;8.722;2022-12-07T11:52:18;2.47;;;2.22;;
26588;SDS011;14235;48.532;8.722;2022-12-07T11:54:51;1.90;;;1.80;;
26588;SDS011;14235;48.532;8.722;2022-12-07T11:57:20;3.30;;;1.90;;
26588;SDS011;14235;48.532;8.722;2022-12-07T11:59:59;2.60;;;1.90;;
26588;SDS011;14235;48.532;8.722;2022-12-07T12:02:32;1.75;;;1.65;;
26588;SDS011;14235;48.532;8.722;2022-12-07T12:05:21;1.50;;;1.43;;
26588;SDS011;14235;48.532;8.722;2022-12-07T12:07:51;1.57;;;1.50;;
26588;SDS011;14235;48.532;8.722;2022-12-07T12:10:34;2.05;;;1.90;;
26588;SDS011;14235;48.532;8.722;2022-12-07T12:13:13;1.80;;;1.70;;
26588;SDS011;14235;48.532;8.722;2022-12-07T12:21:23;1.50;;;1.40;;
26588;SDS011;14235;48.532;8.722;2022-12-07T12:23:58;1.40;;;1.30;;
26588;SDS011;14235;48.532;8.722;2022-12-07T12:26:49;1.70;;;1.60;;
26588;SDS011;14235;48.532;8.722;2022-12-07T12:29:28;2.50;;;1.65;;
26588;SDS011;14235;48.532;8.722;2022-12-07T12:32:12;1.70;;;1.60;;
26588;SDS011;14235;48.532;8.722;2022-12-07T12:35:00;1.75;;;1.63;;
26588;SDS011;14235;48.532;8.722;2022-12-07T12:37:45;1.67;;;1.57;;
26588;SDS011;14235;48.532;8.722;2022-12-07T12:42:44;1.65;;;1.55;;
26588;SDS011;14235;48.532;8.722;2022-12-07T12:50:33;2.10;;;1.58;;
26588;SDS011;14235;48.532;8.722;2022-12-07T12:56:06;1.25;;;1.25;;
26588;SDS011;14235;48.532;8.722;2022-12-07T13:04:55;1.58;;;1.48;;
26588;SDS011;14235;48.532;8.722;2022-12-07T13:10:21;1.35;;;1.25;;
26588;SDS011;14235;48.532;8.722;2022-12-07T13:23:24;1.33;;;1.23;;
26588;SDS011;14235;48.532;8.722;2022-12-07T13:28:25;1.60;;;1.50;;
26588;SDS011;14235;48.532;8.722;2022-12-07T13:31:18;1.55;;;1.45;;
26588;SDS011;14235;48.532;8.722;2022-12-07T13:33:49;1.67;;;1.55;;
26588;SDS011;14235;48.532;8.722;2022-12-07T13:36:19;1.47;;;1.37;;
26588;SDS011;14235;48.532;8.722;2022-12-07T13:41:19;2.07;;;1.97;;
26588;SDS011;14235;48.532;8.722;2022-12-07T13:46:15;2.60;;;2.40;;
26588;SDS011;14235;48.532;8.722;2022-12-07T13:48:45;2.50;;;2.30;;
26588;SDS011;14235;48.532;8.722;2022-12-07T13:51:17;2.10;;;2.00;;
26588;SDS011;14235;48.532;8.722;2022-12-07T13:53:54;2.10;;;2.00;;
26588;SDS011;14235;48.532;8.722;2022-12-07T13:56:26;2.40;;;2.07;;
26588;SDS011;14235;48.532;8.722;2022-12-07T13:58:57;1.88;;;1.45;;
26588;SDS011;14235;48.532;8.722;2022-12-07T14:01:24;2.03;;;1.92;;
26588;SDS011;14235;48.532;8.722;2022-12-07T14:03:50;1.80;;;1.70;;
26588;SDS011;14235;48.532;8.722;2022-12-07T14:06:25;1.52;;;1.42;;
26588;SDS011;14235;48.532;8.722;2022-12-07T14:09:25;1.23;;;1.23;;
26588;SDS011;14235;48.532;8.722;2022-12-07T14:11:47;1.50;;;1.40;;
26588;SDS011;14235;48.532;8.722;2022-12-07T14:14:15;1.53;;;1.43;;
26588;SDS011;14235;48.532;8.722;2022-12-07T14:16:54;1.50;;;1.50;;
26588;SDS011;14235;48.532;8.722;2022-12-07T14:19:54;1.33;;;1.33;;
26588;SDS011;14235;48.532;8.722;2022-12-07T14:22:32;1.70;;;1.60;;
26588;SDS011;14235;48.532;8.722;2022-12-07T14:27:49;1.50;;;1.40;;
26588;SDS011;14235;48.532;8.722;2022-12-07T14:30:18;1.70;;;1.60;;
26588;SDS011;14235;48.532;8.722;2022-12-07T14:32:44;1.80;;;1.70;;
26588;SDS011;14235;48.532;8.722;2022-12-07T14:35:13;1.60;;;1.50;;
26588;SDS011;14235;48.532;8.722;2022-12-07T14:37:41;1.47;;;1.40;;
26588;SDS011;14235;48.532;8.722;2022-12-07T14:40:11;1.30;;;1.30;;
26588;SDS011;14235;48.532;8.722;2022-12-07T14:42:38;1.90;;;1.80;;
26588;SDS011;14235;48.532;8.722;2022-12-07T14:45:05;1.47;;;1.40;;
26588;SDS011;14235;48.532;8.722;2022-12-07T14:47:31;1.60;;;1.50;;
26588;SDS011;14235;48.532;8.722;2022-12-07T14:49:57;1.47;;;1.37;;
26588;SDS011;14235;48.532;8.722;2022-12-07T14:52:25;1.57;;;1.50;;
26588;SDS011;14235;48.532;8.722;2022-12-07T14:54:54;1.10;;;1.10;;
26588;SDS011;14235;48.532;8.722;2022-12-07T14:57:20;2.20;;;1.40;;
26588;SDS011;14235;48.532;8.722;2022-12-07T14:59:46;1.60;;;1.00;;
26588;SDS011;14235;48.532;8.722;2022-12-07T15:02:12;1.40;;;1.30;;
26588;SDS011;14235;48.532;8.722;2022-12-07T15:04:39;1.10;;;1.10;;
26588;SDS011;14235;48.532;8.722;2022-12-07T15:07:06;1.10;;;1.10;;
26588;SDS011;14235;48.532;8.722;2022-12-07T15:09:35;1.40;;;1.30;;
26588;SDS011;14235;48.532;8.722;2022-12-07T15:12:01;1.87;;;1.70;;
26588;SDS011;14235;48.532;8.722;2022-12-07T15:14:27;2.20;;;2.00;;
26588;SDS011;14235;48.532;8.722;2022-12-07T15:16:53;2.10;;;1.90;;
26588;SDS011;14235;48.532;8.722;2022-12-07T15:19:20;1.50;;;1.50;;
26588;SDS011;14235;48.532;8.722;2022-12-07T15:21:51;1.77;;;1.67;;
26588;SDS011;14235;48.532;8.722;2022-12-07T15:24:17;1.25;;;1.25;;
26588;SDS011;14235;48.532;8.722;2022-12-07T15:26:43;1.02;;;1.02;;
26588;SDS011;14235;48.532;8.722;2022-12-07T15:29:09;0.87;;;0.87;;
26588;SDS011;14235;48.532;8.722;2022-12-07T15:31:35;1.10;;;1.10;;
26588;SDS011;14235;48.532;8.722;2022-12-07T15:34:01;1.10;;;1.10;;
26588;SDS011;14235;48.532;8.722;2022-12-07T15:36:28;0.80;;;0.80;;
26588;SDS011;14235;48.532;8.722;2022-12-07T15:38:55;1.20;;;1.10;;
26588;SDS011;14235;48.532;8.722;2022-12-07T15:41:21;0.90;;;0.90;;
26588;SDS011;14235;48.532;8.722;2022-12-07T15:43:46;1.07;;;1.03;;
26588;SDS011;14235;48.532;8.722;2022-12-07T15:46:35;1.10;;;1.10;;
26588;SDS011;14235;48.532;8.722;2022-12-07T15:49:03;0.90;;;0.90;;
26588;SDS011;14235;48.532;8.722;2022-12-07T15:51:34;1.23;;;0.90;;
26588;SDS011;14235;48.532;8.722;2022-12-07T15:53:59;1.13;;;1.13;;
26588;SDS011;14235;48.532;8.722;2022-12-07T15:56:25;1.60;;;1.50;;
26588;SDS011;14235;48.532;8.722;2022-12-07T15:58:50;1.87;;;1.77;;
26588;SDS011;14235;48.532;8.722;2022-12-07T16:01:17;2.53;;;2.33;;
26588;SDS011;14235;48.532;8.722;2022-12-07T16:03:44;1.97;;;1.87;;
26588;SDS011;14235;48.532;8.722;2022-12-07T16:06:11;1.80;;;1.60;;
26588;SDS011;14235;48.532;8.722;2022-12-07T16:08:46;1.40;;;1.30;;
26588;SDS011;14235;48.532;8.722;2022-12-07T16:11:12;7.10;;;1.90;;
26588;SDS011;14235;48.532;8.722;2022-12-07T16:13:38;1.13;;;1.13;;
26588;SDS011;14235;48.532;8.722;2022-12-07T16:16:06;1.60;;;1.50;;
26588;SDS011;14235;48.532;8.722;2022-12-07T16:18:34;4.33;;;3.20;;
26588;SDS011;14235;48.532;8.722;2022-12-07T16:21:00;10.03;;;4.33;;
26588;SDS011;14235;48.532;8.722;2022-12-07T16:23:26;5.97;;;3.90;;
26588;SDS011;14235;48.532;8.722;2022-12-07T16:25:52;5.00;;;2.70;;
26588;SDS011;14235;48.532;8.722;2022-12-07T16:28:18;2.20;;;1.60;;
26588;SDS011;14235;48.532;8.722;2022-12-07T16:30:43;1.57;;;1.30;;
26588;SDS011;14235;48.532;8.722;2022-12-07T16:33:09;1.63;;;1.50;;
26588;SDS011;14235;48.532;8.722;2022-12-07T16:35:37;1.90;;;1.63;;
26588;SDS011;14235;48.532;8.722;2022-12-07T16:38:05;1.73;;;1.63;;
26588;SDS011;14235;48.532;8.722;2022-12-07T16:40:32;1.60;;;1.50;;
26588;SDS011;14235;48.532;8.722;2022-12-07T16:42:57;1.53;;;1.43;;
26588;SDS011;14235;48.532;8.722;2022-12-07T16:45:23;2.27;;;2.17;;
26588;SDS011;14235;48.532;8.722;2022-12-07T16:47:48;3.13;;;1.90;;
26588;SDS011;14235;48.532;8.722;2022-12-07T16:50:14;4.67;;;3.53;;
26588;SDS011;14235;48.532;8.722;2022-12-07T16:52:40;10.33;;;8.53;;
26588;SDS011;14235;48.532;8.722;2022-12-07T16:55:05;8.17;;;7.20;;